Time;durP1;ratioP1;P1;durP2;ratioP2;P2;SDS_P1;SDS_P2;PMS_P1;PMS_P2;Temp;Humidity;BMP_temperature;BMP_pressure;BME280_temperature;BME280_humidity;BME280_pressure;Samples;Min_cycle;Max_cycle;Signal;HPM_P1;HPM_P2
2023/01/20 00:01:10;;;;;;;12.20;8.15;;;;;;;8.06;55.77;95541.09;5026409;28;20064;-52
2023/01/20 00:03:39;;;;;;;13.25;8.18;;;;;;;8.06;54.89;95551.59;5025484;28;20064;-52
2023/01/20 00:06:08;;;;;;;11.00;7.15;;;;;;;7.69;57.53;95549.94;5025800;28;20080;-47
2023/01/20 00:08:37;;;;;;;10.27;7.72;;;;;;;7.53;60.41;95557.63;5024275;28;20426;-47
2023/01/20 00:11:06;;;;;;;11.93;7.70;;;;;;;7.46;59.05;95559.19;5024101;28;20069;-47
2023/01/20 00:13:37;;;;;;;11.13;7.22;;;;;;;7.34;59.25;95556.78;5018852;28;20092;-47
2023/01/20 00:16:07;;;;;;;11.85;7.47;;;;;;;7.67;59.85;95554.50;5023520;28;20080;-47
2023/01/20 00:18:36;;;;;;;12.35;8.02;;;;;;;7.72;61.26;95547.00;5023809;28;20092;-53
2023/01/20 00:21:05;;;;;;;12.13;7.95;;;;;;;7.75;59.66;95559.03;5026837;28;20080;-47
2023/01/20 00:23:33;;;;;;;9.75;7.35;;;;;;;7.91;58.89;95558.31;5026289;28;20056;-46
2023/01/20 00:26:05;;;;;;;12.27;7.35;;;;;;;7.55;60.29;95558.31;5029513;28;20069;-48
2023/01/20 00:28:34;;;;;;;11.60;7.65;;;;;;;7.63;60.94;95561.00;5022955;28;20065;-48
2023/01/20 00:31:14;;;;;;;14.27;8.27;;;;;;;7.14;64.26;95571.78;5040590;28;20076;-49
2023/01/20 00:33:43;;;;;;;11.88;7.95;;;;;;;7.07;65.59;95578.59;5024720;28;20072;-50
2023/01/20 00:36:13;;;;;;;12.15;7.97;;;;;;;7.47;62.18;95569.56;5031329;28;20076;-48
2023/01/20 00:38:41;;;;;;;11.60;8.57;;;;;;;7.44;61.96;95569.84;5037848;28;20079;-47
2023/01/20 00:41:10;;;;;;;11.90;7.97;;;;;;;7.12;64.87;95568.50;5021058;28;20076;-50
2023/01/20 00:43:38;;;;;;;10.98;8.20;;;;;;;7.04;66.76;95578.88;5025544;28;20525;-46
2023/01/20 00:46:07;;;;;;;14.43;7.88;;;;;;;7.54;63.25;95570.63;5028934;28;20523;-47
2023/01/20 00:48:37;;;;;;;10.63;7.47;;;;;;;7.61;61.28;95576.09;5025484;28;20081;-50
2023/01/20 00:51:06;;;;;;;17.35;8.98;;;;;;;7.64;59.77;95577.56;5028272;28;20069;-51
2023/01/20 00:53:35;;;;;;;13.55;7.97;;;;;;;7.35;62.25;95587.28;5021535;28;20088;-52
2023/01/20 00:56:04;;;;;;;11.43;7.93;;;;;;;7.46;61.83;95585.44;5020947;28;20085;-49
2023/01/20 00:58:32;;;;;;;12.63;8.20;;;;;;;7.35;61.96;95582.03;5018899;28;20454;-48
2023/01/20 01:01:01;;;;;;;14.73;7.88;;;;;;;7.32;61.71;95589.38;5030371;28;20099;-48
2023/01/20 01:03:30;;;;;;;15.15;7.97;;;;;;;7.38;61.18;95588.78;5025312;28;20627;-49
2023/01/20 01:06:11;;;;;;;11.50;8.45;;;;;;;7.35;61.33;95584.66;5024065;28;20072;-49
2023/01/20 01:08:39;;;;;;;13.70;8.00;;;;;;;7.42;60.81;95591.94;5023350;28;20787;-45
2023/01/20 01:11:08;;;;;;;15.07;8.35;;;;;;;7.35;61.33;95587.28;5025212;28;20084;-49
2023/01/20 01:13:37;;;;;;;13.82;8.25;;;;;;;7.04;62.76;95596.41;5028220;28;20168;-51
2023/01/20 01:16:10;;;;;;;13.15;8.43;;;;;;;7.38;61.65;95594.03;5025218;28;20077;-52
2023/01/20 01:18:39;;;;;;;11.30;7.85;;;;;;;7.25;61.47;95601.41;5021451;28;20069;-49
2023/01/20 01:21:09;;;;;;;11.63;7.95;;;;;;;7.33;61.90;95596.28;5021345;28;20065;-49
2023/01/20 01:23:37;;;;;;;10.70;7.90;;;;;;;7.19;62.11;95604.59;5024321;28;20088;-46
2023/01/20 01:26:06;;;;;;;13.88;8.48;;;;;;;7.18;61.91;95606.41;5023305;28;20736;-52
2023/01/20 01:28:34;;;;;;;12.93;8.10;;;;;;;7.05;63.27;95608.53;5019580;28;20065;-51
2023/01/20 01:31:04;;;;;;;12.63;8.40;;;;;;;6.89;65.01;95612.59;5022944;28;20076;-48
2023/01/20 01:33:33;;;;;;;11.67;8.27;;;;;;;7.22;64.29;95609.56;5022295;28;20072;-46
2023/01/20 01:36:02;;;;;;;12.52;8.85;;;;;;;7.07;66.96;95606.59;5023216;28;20482;-52
2023/01/20 01:38:32;;;;;;;15.57;9.23;;;;;;;7.16;66.33;95612.75;5023979;28;20077;-48
2023/01/20 01:41:00;;;;;;;15.80;9.10;;;;;;;7.09;67.00;95609.91;5026132;28;20072;-55
2023/01/20 01:43:31;;;;;;;13.10;8.70;;;;;;;7.09;66.10;95613.34;5024048;28;20095;-50
2023/01/20 01:45:59;;;;;;;;;;;;;;;6.79;68.00;95601.31;5025009;28;20065;-49
2023/01/20 01:48:29;;;;;;;14.25;8.23;;;;;;;6.75;70.54;95605.19;5022473;28;19949;-49
2023/01/20 01:51:03;;;;;;;13.68;8.93;;;;;;;7.11;67.31;95603.53;5025467;28;20085;-51
2023/01/20 01:53:38;;;;;;;14.63;8.55;;;;;;;6.81;67.12;95604.63;5024422;28;20083;-48
2023/01/20 01:56:07;;;;;;;15.40;8.63;;;;;;;6.59;74.41;95618.03;5024882;28;20084;-46
2023/01/20 01:58:37;;;;;;;14.35;8.07;;;;;;;6.95;71.99;95605.09;5019557;28;20449;-47
2023/01/20 02:01:06;;;;;;;13.38;8.85;;;;;;;6.86;72.84;95606.81;5024170;28;20502;-47
2023/01/20 02:03:40;;;;;;;14.27;8.73;;;;;;;6.54;75.46;95613.25;5022587;28;20104;-46
2023/01/20 02:06:10;;;;;;;12.77;8.00;;;;;;;6.68;76.24;95611.16;5024295;28;20136;-49
2023/01/20 02:08:40;;;;;;;13.63;8.65;;;;;;;6.82;72.28;95614.13;5019397;28;20531;-52
2023/01/20 02:11:08;;;;;;;12.68;8.90;;;;;;;6.61;75.66;95613.50;5021253;28;20088;-47
2023/01/20 02:13:36;;;;;;;12.77;8.68;;;;;;;6.37;77.21;95614.78;5027357;28;20076;-48
2023/01/20 02:16:11;;;;;;;14.40;9.07;;;;;;;6.72;72.61;95613.31;5017985;28;20072;-48
2023/01/20 02:18:49;;;;;;;15.63;9.15;;;;;;;6.54;73.56;95615.03;5023295;28;20073;-48
2023/01/20 02:21:45;;;;;;;14.02;9.05;;;;;;;6.54;73.20;95620.28;5021132;28;20076;-50
2023/01/20 02:24:29;;;;;;;14.30;9.00;;;;;;;5.83;77.36;95623.13;5016849;28;20062;-49
2023/01/20 02:27:06;;;;;;;13.55;8.15;;;;;;;6.27;79.20;95620.97;5020309;28;20061;-49
2023/01/20 02:30:11;;;;;;;12.35;8.40;;;;;;;6.56;74.79;95624.38;5024228;28;20445;-47
2023/01/20 02:32:48;;;;;;;16.00;9.00;;;;;;;6.45;76.08;95621.09;5021454;28;20484;-49
2023/01/20 02:35:22;;;;;;;17.27;9.60;;;;;;;6.68;73.04;95627.69;5026111;28;20068;-46
2023/01/20 02:37:56;;;;;;;14.95;8.93;;;;;;;6.57;73.04;95633.91;5026896;28;20072;-46
2023/01/20 02:40:31;;;;;;;14.35;9.02;;;;;;;6.59;73.39;95625.91;5021377;28;20085;-48
2023/01/20 02:43:05;;;;;;;16.13;9.38;;;;;;;6.25;73.91;95631.56;5025453;28;20069;-48
2023/01/20 02:45:39;;;;;;;14.50;7.97;;;;;;;6.25;75.64;95628.97;5024977;28;20072;-48
2023/01/20 02:48:14;;;;;;;14.25;8.75;;;;;;;5.99;83.03;95631.31;5027887;28;20096;-48
2023/01/20 02:50:46;;;;;;;14.05;8.88;;;;;;;6.16;79.40;95640.28;5029943;28;20065;-48
2023/01/20 02:53:16;;;;;;;13.68;8.98;;;;;;;6.41;77.24;95634.47;5023845;28;20104;-50
2023/01/20 02:55:47;;;;;;;13.52;9.07;;;;;;;6.64;72.33;95637.63;5027712;28;20061;-48
2023/01/20 02:58:19;;;;;;;14.73;8.30;;;;;;;6.62;70.12;95638.72;5027922;28;20080;-45
2023/01/20 03:00:50;;;;;;;14.52;8.88;;;;;;;6.62;69.94;95639.53;5029966;28;20088;-49
2023/01/20 03:03:24;;;;;;;13.18;9.38;;;;;;;6.65;69.31;95641.88;5028662;28;20551;-46
2023/01/20 03:05:54;;;;;;;13.60;9.02;;;;;;;6.56;69.64;95639.28;5023811;28;20110;-45
2023/01/20 03:08:26;;;;;;;15.10;9.13;;;;;;;6.12;75.83;95639.69;5027414;28;20092;-50
2023/01/20 03:10:58;;;;;;;17.63;9.77;;;;;;;6.14;74.11;95643.03;5028700;28;20073;-48
2023/01/20 03:13:30;;;;;;;14.52;9.25;;;;;;;6.01;76.96;95657.34;5026453;28;20081;-53
2023/01/20 03:16:02;;;;;;;13.60;8.85;;;;;;;5.74;81.00;95655.34;5024901;28;20073;-52
2023/01/20 03:18:32;;;;;;;15.00;9.07;;;;;;;5.90;79.21;95653.03;5027550;28;20072;-49
2023/01/20 03:21:01;;;;;;;;;;;;;;;6.16;76.13;95659.44;5026516;28;20073;-49
2023/01/20 03:23:32;;;;;;;15.18;8.98;;;;;;;6.25;75.31;95668.22;5026261;28;20329;-48
2023/01/20 03:26:00;;;;;;;15.50;9.18;;;;;;;5.70;77.04;95678.31;5026686;28;20091;-49
2023/01/20 03:28:29;;;;;;;12.93;8.57;;;;;;;5.63;83.25;95683.25;5026744;28;20085;-46
2023/01/20 03:30:58;;;;;;;12.95;8.32;;;;;;;5.48;85.92;95685.41;5026310;28;20081;-53
2023/01/20 03:33:26;;;;;;;13.52;9.20;;;;;;;5.69;82.41;95682.72;5023397;28;20081;-53
2023/01/20 03:35:56;;;;;;;14.15;8.82;;;;;;;5.77;78.87;95684.66;5021630;28;20085;-48
2023/01/20 03:38:25;;;;;;;12.15;8.57;;;;;;;6.02;76.36;95672.06;5027864;28;20041;-48
2023/01/20 03:40:59;;;;;;;14.18;9.32;;;;;;;6.04;75.09;95685.84;5030295;28;20122;-46
2023/01/20 03:43:30;;;;;;;14.65;9.20;;;;;;;6.11;73.45;95681.72;5025223;28;20081;-47
2023/01/20 03:46:03;;;;;;;16.33;8.57;;;;;;;5.95;76.75;95687.47;5022890;28;20092;-49
2023/01/20 03:48:35;;;;;;;15.85;8.88;;;;;;;6.10;74.92;95686.13;5030248;28;20104;-51
2023/01/20 03:51:10;;;;;;;13.90;9.57;;;;;;;5.48;84.65;95693.25;5028118;28;20077;-50
2023/01/20 03:53:44;;;;;;;11.65;7.78;;;;;;;5.85;78.07;95687.47;5026375;28;20061;-47
2023/01/20 03:56:16;;;;;;;13.15;8.20;;;;;;;5.32;86.24;95692.91;5025925;28;20088;-52
2023/01/20 03:58:47;;;;;;;12.35;8.38;;;;;;;5.77;80.97;95696.91;5021469;28;20517;-46
2023/01/20 04:01:15;;;;;;;;;;;;;;;5.55;80.19;95693.56;5025124;28;20067;-52
2023/01/20 04:03:48;;;;;;;13.70;8.70;;;;;;;5.34;82.34;95698.84;5026260;28;19967;-48
2023/01/20 04:06:19;;;;;;;15.27;9.35;;;;;;;5.25;85.21;95707.47;5019743;28;20093;-51
2023/01/20 04:08:52;;;;;;;14.70;8.85;;;;;;;5.17;89.59;95705.50;5025114;28;20467;-53
2023/01/20 04:11:24;;;;;;;14.90;8.93;;;;;;;5.67;80.72;95705.56;5025765;28;20456;-50
2023/01/20 04:13:53;;;;;;;17.35;9.57;;;;;;;5.78;77.88;95703.78;5026045;28;20077;-51
2023/01/20 04:16:22;;;;;;;14.38;8.80;;;;;;;5.91;76.25;95713.06;5031168;28;20073;-46
2023/01/20 04:18:51;;;;;;;15.63;9.18;;;;;;;5.93;74.47;95697.28;5028481;28;20080;-49
2023/01/20 04:21:24;;;;;;;11.38;8.43;;;;;;;5.72;78.21;95700.78;5035513;28;20079;-46
2023/01/20 04:23:56;;;;;;;14.18;9.05;;;;;;;5.46;85.03;95703.00;5026996;28;20097;-50
2023/01/20 04:26:24;;;;;;;12.82;8.52;;;;;;;5.34;87.07;95711.09;5028359;28;20092;-50
2023/01/20 04:28:52;;;;;;;13.98;9.00;;;;;;;5.32;89.28;95713.00;5023208;28;20076;-46
2023/01/20 04:31:20;;;;;;;15.35;8.63;;;;;;;5.35;84.82;95716.19;5027049;28;20537;-52
2023/01/20 04:33:58;;;;;;;16.48;9.18;;;;;;;5.26;86.88;95710.91;5022065;28;20548;-50
2023/01/20 04:36:28;;;;;;;14.95;9.10;;;;;;;4.88;91.58;95722.78;5024948;28;20065;-48
2023/01/20 04:38:56;;;;;;;12.05;8.63;;;;;;;4.92;93.27;95721.56;5027096;28;20095;-49
2023/01/20 04:41:25;;;;;;;12.13;8.23;;;;;;;4.87;96.39;95721.97;5031595;28;20076;-50
2023/01/20 04:43:53;;;;;;;13.95;7.97;;;;;;;4.74;99.46;95727.38;5024755;28;20065;-51
2023/01/20 04:46:22;;;;;;;13.85;7.90;;;;;;;4.60;100.00;95738.13;5016708;28;20733;-51
2023/01/20 04:48:50;;;;;;;12.98;8.20;;;;;;;4.31;100.00;95737.09;5030467;28;20100;-46
2023/01/20 04:51:19;;;;;;;15.35;8.85;;;;;;;4.31;100.00;95735.28;5029686;28;20061;-45
2023/01/20 04:53:48;;;;;;;15.90;9.43;;;;;;;4.19;100.00;95742.31;5033079;28;20281;-45
2023/01/20 04:56:17;;;;;;;16.47;9.47;;;;;;;4.46;100.00;95741.03;5029934;28;20457;-50
2023/01/20 04:58:47;;;;;;;13.45;9.55;;;;;;;4.72;98.66;95742.38;5027418;28;20491;-46
2023/01/20 05:01:15;;;;;;;;;;;;;;;4.79;93.87;95742.69;5024803;28;20070;-46
2023/01/20 05:03:44;;;;;;;14.30;8.85;;;;;;;4.88;89.91;95748.91;5023813;28;20021;-47
2023/01/20 05:06:13;;;;;;;14.82;9.30;;;;;;;4.32;99.82;95764.81;5026434;28;20068;-46
2023/01/20 05:08:41;;;;;;;14.45;9.35;;;;;;;5.01;89.74;95757.41;5027394;28;20085;-49
2023/01/20 05:11:11;;;;;;;14.48;9.57;;;;;;;5.28;82.80;95759.47;5033488;28;20076;-52
2023/01/20 05:13:39;;;;;;;13.73;9.23;;;;;;;5.51;79.17;95762.78;5026460;28;20501;-47
2023/01/20 05:16:08;;;;;;;15.48;9.05;;;;;;;5.41;76.74;95765.34;5028709;28;20077;-47
2023/01/20 05:18:37;;;;;;;14.07;9.70;;;;;;;5.50;76.68;95770.72;5024470;28;22472;-50
2023/01/20 05:21:07;;;;;;;12.65;8.82;;;;;;;5.55;75.09;95772.00;5031424;28;20495;-47
2023/01/20 05:23:35;;;;;;;17.75;8.93;;;;;;;5.51;74.22;95773.22;5022157;28;20107;-48
2023/01/20 05:26:04;;;;;;;12.68;8.70;;;;;;;5.37;76.43;95782.25;5021671;28;20085;-45
2023/01/20 05:28:34;;;;;;;13.63;8.93;;;;;;;5.22;76.88;95781.72;5019533;28;20075;-48
2023/01/20 05:31:02;;;;;;;14.77;9.33;;;;;;;5.38;75.22;95780.47;5025643;28;20073;-46
2023/01/20 05:33:31;;;;;;;14.30;8.70;;;;;;;5.40;74.32;95783.75;5024382;28;20494;-49
2023/01/20 05:35:59;;;;;;;14.05;8.75;;;;;;;5.17;74.95;95786.53;5022354;28;20083;-49
2023/01/20 05:38:27;;;;;;;14.63;8.93;;;;;;;5.35;74.66;95791.16;5024437;28;20077;-49
2023/01/20 05:40:59;;;;;;;15.10;8.82;;;;;;;5.44;73.84;95795.63;5023195;28;20469;-51
2023/01/20 05:43:28;;;;;;;14.07;8.30;;;;;;;5.47;73.02;95790.97;5028001;28;20069;-51
2023/01/20 05:45:57;;;;;;;15.68;8.90;;;;;;;5.43;73.12;95796.56;5025063;28;20596;-51
2023/01/20 05:48:26;;;;;;;14.15;9.10;;;;;;;5.62;73.28;95795.84;5027700;28;20108;-51
2023/01/20 05:50:54;;;;;;;11.73;8.25;;;;;;;5.38;72.70;95801.38;5021990;28;20108;-51
2023/01/20 05:53:23;;;;;;;14.10;8.82;;;;;;;5.55;74.16;95806.00;5022552;28;20093;-50
2023/01/20 05:55:59;;;;;;;14.82;8.43;;;;;;;5.66;74.08;95807.72;5028914;28;20099;-50
2023/01/20 05:58:27;;;;;;;13.30;8.63;;;;;;;5.77;73.35;95812.84;5026031;28;20086;-51
2023/01/20 06:01:04;;;;;;;14.00;8.00;;;;;;;5.63;75.27;95815.81;5020593;28;20136;-53
2023/01/20 06:03:32;;;;;;;11.82;8.07;;;;;;;5.32;85.04;95818.38;5027745;28;20041;-50
2023/01/20 06:06:01;;;;;;;13.23;8.90;;;;;;;4.57;93.70;95821.94;5026388;28;20069;-49
2023/01/20 06:08:29;;;;;;;14.32;8.70;;;;;;;5.21;93.04;95821.91;5031281;28;20513;-48
2023/01/20 06:10:57;;;;;;;12.77;8.80;;;;;;;5.56;85.11;95819.91;5029464;28;20071;-48
2023/01/20 06:13:26;;;;;;;14.40;8.50;;;;;;;4.83;94.09;95830.28;5027249;28;20076;-48
2023/01/20 06:15:56;;;;;;;14.60;8.88;;;;;;;5.04;95.96;95825.06;5030729;28;20081;-50
2023/01/20 06:18:25;;;;;;;;;;;;;;;5.05;97.16;95823.28;5031735;28;20085;-47
2023/01/20 06:20:56;;;;;;;13.23;8.65;;;;;;;5.17;94.07;95819.69;5029996;28;20400;-46
2023/01/20 06:23:25;;;;;;;13.70;8.20;;;;;;;5.35;93.31;95825.97;5027658;28;20080;-46
2023/01/20 06:25:59;;;;;;;15.07;9.05;;;;;;;5.16;96.64;95828.44;5028874;28;20089;-47
2023/01/20 06:28:27;;;;;;;17.13;9.27;;;;;;;5.34;96.43;95834.78;5026588;28;20073;-48
2023/01/20 06:31:01;;;;;;;13.25;9.05;;;;;;;5.51;95.29;95835.16;5029690;28;20065;-47
2023/01/20 06:33:30;;;;;;;11.90;8.90;;;;;;;5.88;90.40;95835.47;5031980;28;20076;-49
2023/01/20 06:35:58;;;;;;;13.95;9.32;;;;;;;6.03;85.30;95834.22;5028297;28;20085;-47
2023/01/20 06:38:29;;;;;;;16.35;9.23;;;;;;;6.13;82.20;95839.47;5027828;28;20101;-50
2023/01/20 06:40:58;;;;;;;16.95;9.10;;;;;;;6.11;79.05;95838.78;5029554;28;20076;-46
2023/01/20 06:43:28;;;;;;;14.60;9.57;;;;;;;6.10;80.63;95845.81;5029317;28;20081;-49
2023/01/20 06:46:02;;;;;;;17.60;9.48;;;;;;;5.55;93.22;95854.88;5025749;28;20069;-50
2023/01/20 06:48:30;;;;;;;14.80;9.98;;;;;;;5.47;95.85;95856.34;5029007;28;20109;-46
2023/01/20 06:51:02;;;;;;;16.33;9.60;;;;;;;5.81;92.57;95857.88;5025462;28;20057;-48
2023/01/20 06:53:31;;;;;;;14.18;10.10;;;;;;;6.10;87.99;95858.88;5028537;28;20072;-49
2023/01/20 06:56:00;;;;;;;15.23;9.88;;;;;;;6.20;85.27;95863.34;5027965;28;20080;-52
2023/01/20 06:58:30;;;;;;;13.70;9.45;;;;;;;5.96;86.26;95869.72;5023965;28;20489;-51
2023/01/20 07:01:05;;;;;;;16.05;9.25;;;;;;;5.87;90.77;95870.44;5026843;28;20065;-47
2023/01/20 07:03:34;;;;;;;17.48;9.35;;;;;;;5.75;91.47;95869.72;5023388;28;20081;-48
2023/01/20 07:06:04;;;;;;;14.55;9.57;;;;;;;5.56;98.23;95870.41;5028590;28;20088;-46
2023/01/20 07:08:32;;;;;;;15.77;10.30;;;;;;;5.46;99.93;95879.97;5033152;28;20088;-50
2023/01/20 07:11:00;;;;;;;15.82;10.40;;;;;;;5.37;100.00;95884.22;5030251;28;20077;-47
2023/01/20 07:13:28;;;;;;;17.40;10.60;;;;;;;5.51;100.00;95884.84;5026336;28;20077;-48
2023/01/20 07:15:57;;;;;;;22.02;11.13;;;;;;;5.60;100.00;95889.28;5029490;28;20092;-51
2023/01/20 07:18:26;;;;;;;17.63;11.10;;;;;;;4.81;100.00;95902.69;5032653;28;20103;-47
2023/01/20 07:20:55;;;;;;;16.73;10.73;;;;;;;5.21;100.00;95909.94;5023734;28;20489;-48
2023/01/20 07:23:24;;;;;;;17.23;11.48;;;;;;;4.68;100.00;95910.72;5029656;28;20080;-51
2023/01/20 07:25:58;;;;;;;15.70;11.30;;;;;;;5.35;100.00;95904.41;5024679;28;20561;-53
2023/01/20 07:28:27;;;;;;;16.65;10.75;;;;;;;5.04;100.00;95913.09;5022149;28;20559;-48
2023/01/20 07:30:55;;;;;;;18.75;11.90;;;;;;;5.52;100.00;95910.03;5025115;28;20093;-48
2023/01/20 07:33:24;;;;;;;20.20;11.48;;;;;;;5.54;100.00;95921.19;5028122;28;20080;-45
2023/01/20 07:35:53;;;;;;;20.42;12.07;;;;;;;5.73;100.00;95908.25;5029515;28;20466;-54
2023/01/20 07:38:22;;;;;;;17.48;12.02;;;;;;;5.70;100.00;95913.72;5026110;28;20116;-50
2023/01/20 07:40:50;;;;;;;19.50;11.52;;;;;;;5.62;100.00;95924.00;5027665;28;20089;-49
2023/01/20 07:43:19;;;;;;;17.98;11.77;;;;;;;5.53;100.00;95916.91;5031404;28;20084;-49
2023/01/20 07:45:47;;;;;;;18.92;11.68;;;;;;;5.81;100.00;95931.97;5024709;28;20565;-51
2023/01/20 07:48:15;;;;;;;17.13;10.77;;;;;;;5.50;100.00;95938.91;5020382;28;20081;-52
2023/01/20 07:50:43;;;;;;;15.73;11.02;;;;;;;5.85;100.00;95941.25;5022141;28;20088;-51
2023/01/20 07:53:16;;;;;;;18.63;11.32;;;;;;;5.44;100.00;95940.25;5028079;28;20096;-49
2023/01/20 07:55:44;;;;;;;18.43;11.60;;;;;;;5.12;100.00;95945.47;5022578;28;20079;-45
2023/01/20 07:58:12;;;;;;;21.60;11.07;;;;;;;4.89;100.00;95951.75;5026927;28;20084;-45
2023/01/20 08:00:41;;;;;;;17.75;10.50;;;;;;;4.99;100.00;95950.88;5026556;28;20073;-50
2023/01/20 08:03:09;;;;;;;14.55;9.68;;;;;;;5.08;100.00;95953.69;5024318;28;20078;-45
2023/01/20 08:05:37;;;;;;;12.93;9.32;;;;;;;4.92;100.00;95954.09;5026606;28;20069;-48
2023/01/20 08:08:06;;;;;;;15.15;9.85;;;;;;;4.98;100.00;95961.44;5027335;28;20609;-47
2023/01/20 08:10:35;;;;;;;16.67;11.10;;;;;;;4.50;100.00;95965.19;5023961;28;20089;-44
2023/01/20 08:13:04;;;;;;;14.77;9.68;;;;;;;4.88;100.00;95966.56;5026551;28;20081;-46
2023/01/20 08:15:32;;;;;;;18.70;10.90;;;;;;;4.89;100.00;95967.41;5026859;28;20113;-52
2023/01/20 08:18:01;;;;;;;18.50;10.15;;;;;;;5.17;100.00;95972.09;5031043;28;20095;-51
2023/01/20 08:20:29;;;;;;;18.27;11.38;;;;;;;4.89;100.00;95983.09;5025433;28;20541;-47
2023/01/20 08:22:57;;;;;;;7.15;5.65;;;;;;;4.93;100.00;95982.72;5024766;28;20081;-49
2023/01/20 08:25:26;;;;;;;17.52;11.13;;;;;;;4.97;100.00;95983.31;5027345;28;20141;-47
2023/01/20 08:27:55;;;;;;;16.42;11.25;;;;;;;4.96;100.00;95992.09;5025966;28;20081;-49
2023/01/20 08:30:24;;;;;;;18.07;11.37;;;;;;;5.13;100.00;95983.75;5028467;28;21959;-48
2023/01/20 08:32:52;;;;;;;16.98;11.07;;;;;;;4.44;100.00;95986.56;5022187;28;20092;-51
2023/01/20 08:35:20;;;;;;;17.35;10.52;;;;;;;4.88;100.00;95987.47;5025480;28;20089;-48
2023/01/20 08:37:49;;;;;;;12.38;8.82;;;;;;;5.02;100.00;95988.97;5021799;28;20077;-48
2023/01/20 08:40:17;;;;;;;17.90;10.88;;;;;;;5.21;100.00;95993.59;5023743;28;20089;-51
2023/01/20 08:42:46;;;;;;;15.02;9.13;;;;;;;5.16;100.00;95987.88;5027422;28;20514;-48
2023/01/20 08:45:15;;;;;;;18.05;10.80;;;;;;;5.13;100.00;95994.19;5023779;28;20076;-51
2023/01/20 08:47:44;;;;;;;17.63;10.93;;;;;;;5.76;100.00;95994.31;5025507;28;20085;-50
2023/01/20 08:50:14;;;;;;;14.57;10.15;;;;;;;6.02;100.00;95996.59;5024204;28;20080;-48
2023/01/20 08:52:42;;;;;;;16.42;10.57;;;;;;;5.37;100.00;96007.09;5021812;28;20526;-49
2023/01/20 08:55:12;;;;;;;18.00;10.88;;;;;;;5.71;100.00;96009.56;5024086;28;20085;-49
2023/01/20 08:57:40;;;;;;;17.00;11.05;;;;;;;5.73;100.00;96005.03;5027105;28;20092;-51
2023/01/20 09:00:10;;;;;;;16.98;10.95;;;;;;;6.53;100.00;96003.63;5018373;28;20461;-51
2023/01/20 09:02:40;;;;;;;18.43;11.70;;;;;;;5.02;100.00;96016.91;5020893;28;20085;-51
2023/01/20 09:05:09;;;;;;;15.43;9.75;;;;;;;5.48;100.00;96024.53;5020821;28;20565;-50
2023/01/20 09:07:38;;;;;;;14.70;10.02;;;;;;;5.73;100.00;96028.59;5024043;28;20081;-50
2023/01/20 09:10:07;;;;;;;15.88;11.00;;;;;;;5.86;100.00;96028.41;5022630;28;20096;-51
2023/01/20 09:12:36;;;;;;;17.48;11.15;;;;;;;6.46;100.00;96023.44;5024804;28;20088;-48
2023/01/20 09:15:06;;;;;;;17.98;11.20;;;;;;;5.96;100.00;96031.13;5027419;28;20085;-47
2023/01/20 09:17:34;;;;;;;17.35;10.98;;;;;;;5.98;100.00;96037.06;5023095;28;20064;-44
2023/01/20 09:20:05;;;;;;;16.27;10.73;;;;;;;5.81;100.00;96038.41;5024100;28;20092;-49
2023/01/20 09:22:33;;;;;;;19.45;10.40;;;;;;;5.75;100.00;96037.16;5021377;28;20079;-46
2023/01/20 09:25:02;;;;;;;16.10;10.90;;;;;;;6.30;100.00;96037.03;5023945;28;20092;-50
2023/01/20 09:27:30;;;;;;;15.65;9.57;;;;;;;6.15;100.00;96036.50;5024903;28;20085;-51
2023/01/20 09:29:58;;;;;;;13.98;10.45;;;;;;;5.58;100.00;96051.59;5025924;28;20065;-46
2023/01/20 09:32:27;;;;;;;13.32;9.63;;;;;;;5.61;100.00;96050.50;5024106;28;20112;-49
2023/01/20 09:34:55;;;;;;;15.98;10.68;;;;;;;5.98;100.00;96052.75;5026045;28;20172;-50
2023/01/20 09:45:55;;;;;;;9.30;6.65;;;;;;;5.51;100.00;96065.28;5028758;28;20091;-48
2023/01/20 09:54:14;;;;;;;14.27;9.20;;;;;;;5.22;100.00;96077.09;5028897;28;20080;-47
2023/01/20 09:56:47;;;;;;;12.32;7.43;;;;;;;5.86;100.00;96065.88;5027386;28;20088;-53
2023/01/20 09:59:20;;;;;;;11.88;8.18;;;;;;;5.63;100.00;96072.97;5030447;28;20085;-51
2023/01/20 10:01:51;;;;;;;12.55;9.30;;;;;;;5.37;100.00;96067.22;5029924;28;20540;-46
2023/01/20 10:04:24;;;;;;;15.18;9.80;;;;;;;5.55;100.00;96064.91;5031347;28;20092;-50
2023/01/20 10:06:55;;;;;;;13.73;8.98;;;;;;;5.11;100.00;96071.88;5027148;28;20482;-50
2023/01/20 10:09:29;;;;;;;10.25;6.47;;;;;;;5.61;100.00;96068.81;5026851;28;20097;-53
2023/01/20 10:12:07;;;;;;;10.80;7.05;;;;;;;5.82;100.00;96068.88;5027584;28;20088;-47
2023/01/20 10:14:38;;;;;;;14.43;9.30;;;;;;;5.14;100.00;96071.66;5030670;28;20072;-46
2023/01/20 10:17:10;;;;;;;12.07;8.02;;;;;;;5.09;100.00;96080.78;5030527;28;20081;-52
2023/01/20 10:19:43;;;;;;;14.40;9.55;;;;;;;5.20;100.00;96075.56;5027875;28;20521;-51
2023/01/20 10:22:15;;;;;;;18.85;8.80;;;;;;;5.62;100.00;96073.94;5029415;28;20088;-49
2023/01/20 10:24:54;;;;;;;14.20;8.98;;;;;;;5.50;100.00;96074.06;5025808;28;20081;-47
2023/01/20 10:27:24;;;;;;;12.60;8.32;;;;;;;6.13;100.00;96065.44;5029879;28;20085;-48
2023/01/20 10:29:55;;;;;;;10.00;7.55;;;;;;;5.77;100.00;96079.69;5023479;28;20084;-50
2023/01/20 10:32:30;;;;;;;11.65;7.25;;;;;;;6.28;100.00;96072.97;5025689;28;20083;-47
2023/01/20 10:35:02;;;;;;;14.70;8.45;;;;;;;6.12;100.00;96068.97;5027140;28;20074;-51
2023/01/20 10:37:31;;;;;;;10.43;7.00;;;;;;;5.86;100.00;96068.50;5028795;28;20484;-51
2023/01/20 10:40:07;;;;;;;13.10;8.80;;;;;;;5.72;100.00;96077.47;5024339;28;20084;-45
2023/01/20 10:42:35;;;;;;;14.48;9.20;;;;;;;5.80;100.00;96076.00;5025428;28;20085;-49
2023/01/20 10:45:08;;;;;;;13.35;9.70;;;;;;;6.07;100.00;96084.25;5026879;28;20077;-50
2023/01/20 10:47:44;;;;;;;14.60;9.57;;;;;;;6.56;100.00;96074.91;5027772;28;20081;-48
2023/01/20 10:50:32;;;;;;;12.18;8.48;;;;;;;6.10;100.00;96073.53;5027318;28;20088;-52
2023/01/20 10:53:35;;;;;;;10.18;6.95;;;;;;;6.26;100.00;96080.09;5026498;28;20077;-50
2023/01/20 10:56:16;;;;;;;10.20;6.82;;;;;;;6.33;100.00;96068.16;5032487;28;20088;-49
2023/01/20 10:58:46;;;;;;;14.05;9.30;;;;;;;6.04;100.00;96078.44;5026033;28;20081;-51
2023/01/20 11:01:17;;;;;;;9.73;7.07;;;;;;;6.68;100.00;96069.63;5023930;28;20069;-48
2023/01/20 11:03:48;;;;;;;16.23;8.43;;;;;;;6.20;100.00;96070.97;5026136;28;20077;-47
2023/01/20 11:06:18;;;;;;;;;;;;;;;6.18;100.00;96072.88;5025971;28;20081;-46
2023/01/20 11:08:46;;;;;;;11.63;7.32;;;;;;;6.45;100.00;96066.31;5028798;28;19970;-50
2023/01/20 11:11:18;;;;;;;12.35;7.47;;;;;;;5.89;100.00;96073.47;5025258;28;20076;-49
2023/01/20 11:13:47;;;;;;;12.32;6.57;;;;;;;6.09;100.00;96071.88;5028655;28;20096;-50
2023/01/20 11:16:18;;;;;;;10.07;6.97;;;;;;;5.76;100.00;96077.22;5026412;28;20483;-46
2023/01/20 11:18:55;;;;;;;12.07;8.30;;;;;;;5.68;100.00;96070.00;5026156;28;20081;-51
2023/01/20 11:21:25;;;;;;;11.95;7.35;;;;;;;5.48;100.00;96082.06;5026796;28;20472;-51
2023/01/20 11:23:55;;;;;;;9.30;6.70;;;;;;;5.67;100.00;96078.78;5024104;28;20073;-47
2023/01/20 11:26:27;;;;;;;15.75;10.88;;;;;;;5.42;100.00;96079.91;5017576;28;20081;-49
2023/01/20 11:28:57;;;;;;;15.32;9.88;;;;;;;5.41;100.00;96079.09;5022251;28;20088;-50
2023/01/20 11:31:40;;;;;;;15.07;9.20;;;;;;;5.83;100.00;96071.34;5027178;28;20082;-48
2023/01/20 11:34:21;;;;;;;14.65;9.40;;;;;;;5.63;100.00;96080.81;5026737;28;20080;-47
2023/01/20 11:36:50;;;;;;;11.77;8.23;;;;;;;5.20;100.00;96080.81;5022299;28;20088;-50
2023/01/20 11:39:29;;;;;;;18.08;10.27;;;;;;;5.17;100.00;96086.25;5023419;28;20081;-46
2023/01/20 11:42:15;;;;;;;13.70;9.13;;;;;;;5.22;100.00;96090.16;5020072;28;20722;-49
2023/01/20 11:44:44;;;;;;;13.77;9.35;;;;;;;5.26;100.00;96082.09;5023140;28;20082;-50
2023/01/20 11:47:23;;;;;;;13.25;8.40;;;;;;;5.72;100.00;96082.69;5024448;28;20092;-48
2023/01/20 11:50:26;;;;;;;15.27;9.45;;;;;;;5.34;100.00;96084.94;5021347;28;20089;-49
2023/01/20 11:53:12;;;;;;;12.75;8.13;;;;;;;5.56;100.00;96082.25;5017406;28;20479;-52
2023/01/20 11:55:48;;;;;;;14.50;9.48;;;;;;;5.62;100.00;96083.56;5027817;28;20085;-50
2023/01/20 11:58:21;;;;;;;18.17;11.55;;;;;;;5.84;100.00;96082.66;5031917;28;20084;-45
2023/01/20 12:00:52;;;;;;;17.17;10.30;;;;;;;5.71;100.00;96081.03;5019707;28;20069;-47